LYNI/INI METAR and TAF weather

Enter ICAO airport designator
Station Type Date Time Source
LYNI METAR 2022/01/29 11:00 UTC NOAA

LYNI 291100Z 34012G22KT 9999 BKN017 BKN033 02/M02 Q1027 NOSIG


Station Type Date Time Source
LYNI Decoded METAR 2022/01/29 11:00 UTC NOAA

Nis, Serbia and Montenegro (LYNI) 43-20N 021-54E 202M
Jan 29, 2022 - 06:00 AM EST / 2022.01.29 1100 UTC
Wind: from the NNW (340 degrees) at 14 MPH (12 KT) gusting to 25 MPH (22 KT):0
Visibility: greater than 7 mile(s):0
Sky conditions: mostly cloudy
Temperature: 35 F (2 C)
Windchill: 26 F (-3 C):1
Dew Point: 28 F (-2 C)
Relative Humidity: 74%
Pressure (altimeter): 30.33 in. Hg (1027 hPa)
ob: LYNI 291100Z 34012G22KT 9999 BKN017 BKN033 02/M02 Q1027 NOSIG
cycle: 11

Station Type Date Time Source
LYNI TAF 2022/01/29 06:22 UTC NOAA

TAF LYNI 290500Z 2906/3006 31008KT 9999 BKN013 BKN027 TX03/2913Z TNM02/3002Z
TEMPO 2906/2909 5000 -SNRA BKN007 BKN025
BECMG 2907/2909 32020KT
BECMG 2917/2919 25005KT BKN020

Example: see airport list